Lake Worth, FL (33460)

7:18 PM EST on February 06, 2016 (GMT -0500)
NOS_NWLON | | Change Station
CLOSE
Current Station
Personal Weather Station
Location: Lake Worth, FL
Elevation: 0 ft
Nearby Weather Stations

Elev 0 ft 26.61 °N, 80.03 °W | Updated 30 minutes ago

Mostly Cloudy
Mostly Cloudy
73 °F
Feels Like 71 °F
N
15
Wind Variable Wind from SE
Gusts 19.0 mph

Today
High -- | Low -- °F
--% Chance of Precip.
Yesterday
High -- | Low -- °F
Precip. -- in
Pressure 30.00 in
Visibility 2.0 miles
Clouds Mostly Cloudy 1800 ft
Mostly Cloudy 5000 ft
Mostly Cloudy 11000 ft
Heat Index 71 °F
Dew Point Not available.
Humidity Not available.
Rainfall in
Snow Depth Not available.
7:02 AM 6:06 PM
Waning Crescent, 3% visible
SPECI KPBI 070016Z 15010KT 2SM +RA BKN018 BKN050 BKN110 22/19 A3000 RMK AO2 P0004 T02220189 $
Pressure 30.00 in
Visibility 2.0 miles
Clouds Mostly Cloudy 1800 ft
Mostly Cloudy 5000 ft
Mostly Cloudy 11000 ft
Heat Index 71 °F
Dew Point Not available.
Humidity Not available.
Rainfall in
Snow Depth Not available.
7:02 AM 6:06 PM
Waning Crescent, 3% visible
SPECI KPBI 070016Z 15010KT 2SM +RA BKN018 BKN050 BKN110 22/19 A3000 RMK AO2 P0004 T02220189 $

10-Day Weather Forecast

Almanac

Astronomy

Feb. 06, 2016 Rise Set
Actual Time
Civil Twilight
Nautical Twilight
Astronomical Twilight
Moon
Length of Visible Light
Length of Day
Tomorrow will be .
, % of the Moon is Illuminated

Today's Extremes

State Highs State Lows

Community

WunderPhotos

Upload Photos

1,891,105 photos uploaded!

WunderBlog® & News

Nearby

Air Quality

  Air Quality AQ Index Pollutant
Not available.

Snow Depth

Station Depth Elevation

Earthquake Activity

City Distance Mag. Time & Date
Minimum magnitude displayed is 2.5.

Coastal Water Temperatures

Place Temperature

Stations

Nearby Weather Stations

Station Location Temp. Windchill Dew Point Humidity Wind Precip. Elev Updated Type
                   

Watches & Warnings

There are currently no watches in effect.